Time;durP1;ratioP1;P1;durP2;ratioP2;P2;SDS_P1;SDS_P2;PMS_P1;PMS_P2;Temp;Humidity;BMP_temperature;BMP_pressure;BME280_temperature;BME280_humidity;BME280_pressure;Samples;Min_cycle;Max_cycle;Signal;HPM_P1;HPM_P2
2022/11/17 00:02:15;;;;;;;2.20;1.67;;;;;;;14.41;60.30;93909.56;4946431;29;20454;-63
2022/11/17 00:04:44;;;;;;;2.57;2.23;;;;;;;14.70;59.67;93912.50;4938671;29;20519;-64
2022/11/17 00:07:10;;;;;;;1.60;1.47;;;;;;;13.96;62.04;93919.31;4940397;28;20492;-63
2022/11/17 00:09:37;;;;;;;3.77;2.37;;;;;;;14.16;60.72;93897.75;4932916;29;20448;-63
2022/11/17 00:14:57;;;;;;;0.27;0.27;;;;;;;14.66;59.75;93903.63;4932572;29;20542;-64
2022/11/17 00:17:23;;;;;;;3.70;2.20;;;;;;;14.79;59.25;93885.09;4944267;29;20450;-63
2022/11/17 00:22:35;;;;;;;2.23;1.73;;;;;;;14.99;58.41;93889.81;4945065;29;20450;-63
2022/11/17 00:25:02;;;;;;;1.43;1.33;;;;;;;15.07;58.50;93901.47;4951695;28;20438;-64
2022/11/17 00:27:29;;;;;;;2.77;2.47;;;;;;;14.86;58.76;93890.69;4951650;28;20518;-64
2022/11/17 00:29:56;;;;;;;4.60;2.17;;;;;;;14.98;58.01;93882.22;4934528;28;20998;-64
2022/11/17 00:35:08;;;;;;;2.77;2.43;;;;;;;15.04;58.39;93887.03;4949542;29;20447;-64
2022/11/17 00:37:36;;;;;;;0.60;0.60;;;;;;;15.09;57.92;93888.75;4941055;28;20968;-63
2022/11/17 00:40:05;;;;;;;2.40;1.93;;;;;;;15.00;58.55;93858.91;4948508;28;20547;-62
2022/11/17 00:42:31;;;;;;;3.50;2.63;;;;;;;14.96;57.88;93898.31;4942305;28;20978;-64
2022/11/17 00:44:58;;;;;;;5.73;2.17;;;;;;;14.07;60.50;93900.34;4938523;28;20969;-65
2022/11/17 00:47:25;;;;;;;0.80;0.80;;;;;;;14.54;60.46;93888.41;4939362;29;21068;-64
2022/11/17 00:49:52;;;;;;;1.07;1.07;;;;;;;14.27;60.51;93893.84;4951364;28;20451;-64
2022/11/17 00:52:18;;;;;;;0.63;0.63;;;;;;;13.74;62.94;93901.66;4933464;28;20567;-63
2022/11/17 00:54:45;;;;;;;0.97;0.97;;;;;;;14.17;61.43;93871.16;4939764;29;20531;-64
2022/11/17 00:57:12;;;;;;;1.73;1.63;;;;;;;14.61;60.17;93867.66;4950871;28;20447;-64
2022/11/17 00:59:39;;;;;;;4.00;1.13;;;;;;;14.45;60.11;93874.38;4931967;29;20538;-64
2022/11/17 01:02:05;;;;;;;2.43;2.10;;;;;;;13.99;61.78;93876.59;4943989;29;20498;-64
2022/11/17 01:04:32;;;;;;;2.03;1.87;;;;;;;14.32;60.84;93869.22;4951096;28;20504;-64
2022/11/17 01:06:59;;;;;;;2.50;0.97;;;;;;;14.48;60.60;93857.19;4951195;28;20450;-63
2022/11/17 01:09:26;;;;;;;1.50;1.40;;;;;;;14.67;59.69;93858.50;4937761;28;20568;-63
2022/11/17 01:11:53;;;;;;;1.30;1.20;;;;;;;14.74;59.11;93861.50;4951884;28;20455;-64
2022/11/17 01:14:22;;;;;;;1.53;1.40;;;;;;;15.00;58.90;93864.97;4936949;28;20539;-65
2022/11/17 01:16:50;;;;;;;4.13;1.37;;;;;;;14.78;59.53;93846.59;4939665;29;20486;-64
2022/11/17 01:19:18;;;;;;;1.47;1.37;;;;;;;14.96;58.73;93827.09;4954380;28;20483;-63
2022/11/17 01:21:46;;;;;;;1.23;1.13;;;;;;;14.85;59.26;93849.56;4941611;28;20494;-64
2022/11/17 01:24:15;;;;;;;1.37;1.33;;;;;;;14.13;60.68;93845.69;4942442;28;20503;-64
2022/11/17 01:26:43;;;;;;;1.17;1.07;;;;;;;14.25;60.72;93848.53;4953499;28;20451;-64
2022/11/17 01:29:12;;;;;;;0.57;0.57;;;;;;;14.31;60.43;93847.34;4955007;28;20931;-64
2022/11/17 01:31:44;;;;;;;1.33;1.23;;;;;;;14.41;60.56;93852.38;4954478;28;20827;-65
2022/11/17 01:34:11;;;;;;;0.20;0.20;;;;;;;14.16;60.96;93850.34;4954729;28;20514;-63
2022/11/17 01:39:28;;;;;;;0.30;0.30;;;;;;;14.11;61.12;93856.53;4935426;29;20452;-64
2022/11/17 01:42:00;;;;;;;3.27;2.63;;;;;;;14.30;60.59;93855.56;4948601;28;20834;-64
2022/11/17 01:44:50;;;;;;;5.97;3.03;;;;;;;14.02;62.08;93841.75;4946036;29;21037;-63
2022/11/17 01:47:21;;;;;;;0.70;0.70;;;;;;;14.10;61.29;93844.44;4940790;28;20483;-66
2022/11/17 01:49:53;;;;;;;0.73;0.73;;;;;;;14.48;60.42;93841.38;4953992;28;20517;-63
2022/11/17 01:52:21;;;;;;;2.53;2.10;;;;;;;14.69;60.42;93848.44;4936596;29;20456;-63
2022/11/17 01:54:48;;;;;;;1.13;0.73;;;;;;;14.36;60.18;93847.22;4946056;28;20486;-65
2022/11/17 01:57:28;;;;;;;7.77;3.70;;;;;;;14.62;59.96;93836.78;4934977;29;20456;-64
2022/11/17 02:00:06;;;;;;;1.50;1.40;;;;;;;13.98;61.59;93827.63;4954049;28;20453;-64
2022/11/17 02:02:34;;;;;;;0.80;0.80;;;;;;;13.91;62.03;93822.03;4940322;28;21247;-65
2022/11/17 02:05:09;;;;;;;2.83;1.47;;;;;;;14.73;60.16;93832.78;4945866;28;20535;-65
2022/11/17 02:07:38;;;;;;;4.60;2.93;;;;;;;14.80;59.96;93823.34;4947753;28;20529;-65
2022/11/17 02:10:05;;;;;;;1.13;0.93;;;;;;;14.50;60.30;93803.13;4935010;29;20444;-65
2022/11/17 02:12:35;;;;;;;2.77;1.83;;;;;;;14.05;60.96;93806.94;4948020;28;20448;-64
2022/11/17 02:15:03;;;;;;;4.37;1.90;;;;;;;13.82;63.23;93819.34;4934721;29;20471;-65
2022/11/17 02:17:49;;;;;;;0.60;0.60;;;;;;;13.79;62.62;93824.44;4946884;28;20451;-65
2022/11/17 02:20:39;;;;;;;2.20;2.00;;;;;;;13.97;62.25;93823.47;4953283;28;20458;-66
2022/11/17 02:23:21;;;;;;;1.57;1.50;;;;;;;14.46;60.56;93812.72;4936671;28;20475;-65
2022/11/17 02:26:24;;;;;;;0.60;0.60;;;;;;;14.46;61.15;93807.44;4945425;28;20912;-65
2022/11/17 02:29:03;;;;;;;6.80;2.03;;;;;;;14.56;60.64;93801.88;4933947;29;20999;-66
2022/11/17 02:31:42;;;;;;;1.60;0.67;;;;;;;14.38;60.71;93816.06;4947683;28;20526;-66
2022/11/17 02:34:30;;;;;;;3.43;3.13;;;;;;;13.94;61.84;93816.16;4944252;29;20538;-66
2022/11/17 02:37:00;;;;;;;0.60;0.50;;;;;;;14.08;61.45;93808.94;4953403;28;20495;-64
2022/11/17 02:39:48;;;;;;;2.10;1.53;;;;;;;14.45;60.80;93819.03;4953876;28;20535;-65
2022/11/17 02:44:02;;;;;;;1.83;0.90;;;;;;;14.54;59.72;93814.59;4940969;29;20470;-65
2022/11/17 02:45:12;;;;;;;1.13;1.07;;;;;;;14.77;59.28;93802.09;4950858;28;20444;-64
2022/11/17 02:47:42;;;;;;;3.83;2.27;;;;;;;14.56;60.61;93787.94;4942961;28;20534;-64
2022/11/17 02:50:10;;;;;;;1.37;1.27;;;;;;;14.21;62.05;93802.81;4938926;28;21016;-64
2022/11/17 02:52:37;;;;;;;1.50;1.17;;;;;;;14.35;61.04;93806.16;4938311;29;20551;-64
2022/11/17 02:55:08;;;;;;;1.73;1.57;;;;;;;14.48;60.71;93788.69;4953422;28;20479;-64
2022/11/17 02:57:38;;;;;;;5.50;1.87;;;;;;;14.63;59.59;93754.00;4936790;28;20452;-65
2022/11/17 03:00:13;;;;;;;0.60;0.60;;;;;;;14.66;60.39;93780.50;4943372;28;20471;-64
2022/11/17 03:02:54;;;;;;;1.27;1.17;;;;;;;14.41;60.74;93794.41;4952855;29;20443;-65
2022/11/17 03:05:24;;;;;;;0.70;0.70;;;;;;;14.22;61.11;93793.81;4952912;28;20447;-64
2022/11/17 03:08:01;;;;;;;0.80;0.80;;;;;;;14.62;59.81;93782.19;4939023;28;20475;-64
2022/11/17 03:10:57;;;;;;;0.63;0.63;;;;;;;14.50;60.85;93807.59;4952370;28;20447;-65
2022/11/17 03:13:42;;;;;;;1.93;1.77;;;;;;;13.81;62.66;93806.47;4933540;29;20901;-64
2022/11/17 03:16:31;;;;;;;1.00;0.97;;;;;;;14.67;59.87;93797.88;4933507;29;20544;-64
2022/11/17 03:19:08;;;;;;;2.97;1.77;;;;;;;15.11;58.58;93794.22;4944338;29;20532;-63
2022/11/17 03:21:44;;;;;;;1.03;0.90;;;;;;;15.18;58.67;93802.47;4952605;28;20454;-64
2022/11/17 03:24:39;;;;;;;0.97;0.97;;;;;;;15.13;58.34;93784.91;4940867;28;20461;-65
2022/11/17 03:27:16;;;;;;;0.53;0.53;;;;;;;14.92;59.23;93783.97;4942165;28;21038;-64
2022/11/17 03:29:48;;;;;;;1.57;1.47;;;;;;;14.58;59.88;93777.88;4952637;28;20439;-65
2022/11/17 03:32:16;;;;;;;0.30;0.30;;;;;;;14.44;61.00;93777.97;4952333;28;20817;-64
2022/11/17 03:34:49;;;;;;;0.70;0.70;;;;;;;14.92;59.32;93783.97;4939142;28;20444;-66
2022/11/17 03:37:20;;;;;;;0.73;0.73;;;;;;;14.99;59.26;93784.28;4952441;28;20440;-63
2022/11/17 03:39:52;;;;;;;1.13;1.00;;;;;;;14.77;59.41;93792.31;4951673;28;20455;-64
2022/11/17 03:42:28;;;;;;;1.03;1.03;;;;;;;14.53;60.50;93801.72;4940017;29;20475;-63
2022/11/17 03:45:04;;;;;;;0.70;0.67;;;;;;;14.93;58.83;93793.44;4952557;28;20454;-63
2022/11/17 03:47:33;;;;;;;0.53;0.53;;;;;;;14.91;58.72;93798.25;4951644;28;20984;-64
2022/11/17 03:50:22;;;;;;;0.70;0.70;;;;;;;14.97;59.11;93807.56;4937902;28;20476;-65
2022/11/17 03:52:51;;;;;;;1.60;1.50;;;;;;;14.47;60.25;93819.50;4938973;28;20452;-65
2022/11/17 03:55:18;;;;;;;1.70;1.30;;;;;;;14.78;59.69;93796.50;4952126;28;20558;-64
2022/11/17 03:58:03;;;;;;;1.33;0.83;;;;;;;14.70;60.21;93786.72;4934343;28;20444;-64
2022/11/17 04:00:33;;;;;;;0.50;0.50;;;;;;;15.00;59.16;93780.56;4933255;29;20878;-65
2022/11/17 04:02:59;;;;;;;0.30;0.30;;;;;;;14.96;58.66;93784.88;4938302;29;20455;-64
2022/11/17 04:05:26;;;;;;;0.83;0.83;;;;;;;14.56;60.63;93764.97;4940451;28;20444;-65
2022/11/17 04:07:53;;;;;;;1.13;1.10;;;;;;;14.95;58.81;93782.56;4936473;28;20538;-63
2022/11/17 04:10:24;;;;;;;0.40;0.40;;;;;;;15.01;58.28;93779.50;4941953;28;20536;-63
2022/11/17 04:15:55;;;;;;;0.83;0.77;;;;;;;14.51;61.03;93777.50;4944232;29;20454;-64
2022/11/17 04:18:22;;;;;;;0.27;0.27;;;;;;;14.14;61.82;93789.31;4951386;28;20876;-65
2022/11/17 04:20:54;;;;;;;0.87;0.87;;;;;;;14.14;62.02;93773.50;4952093;28;20974;-64
2022/11/17 04:23:22;;;;;;;1.90;0.77;;;;;;;14.22;62.84;93767.47;4938356;28;20539;-64
2022/11/17 04:28:44;;;;;;;1.80;0.80;;;;;;;13.66;63.39;93776.03;4932447;28;20510;-65
2022/11/17 04:31:13;;;;;;;0.67;0.67;;;;;;;14.13;62.20;93758.75;4932488;29;21002;-64
2022/11/17 04:33:48;;;;;;;0.13;0.10;;;;;;;14.58;60.67;93740.97;4932407;29;20445;-64
2022/11/17 04:36:23;;;;;;;0.60;0.60;;;;;;;14.20;62.32;93767.00;4932362;29;20483;-62
2022/11/17 04:38:54;;;;;;;0.30;0.30;;;;;;;13.63;63.39;93762.72;4932563;29;20448;-64
2022/11/17 04:44:09;;;;;;;0.63;0.63;;;;;;;14.21;61.39;93763.31;4943129;28;20476;-65
2022/11/17 04:46:37;;;;;;;0.60;0.60;;;;;;;14.18;62.13;93750.72;4945456;28;20587;-63
2022/11/17 04:49:05;;;;;;;0.30;0.30;;;;;;;14.47;61.55;93740.44;4931970;29;20520;-63
2022/11/17 04:51:32;;;;;;;0.10;0.10;;;;;;;14.73;60.41;93757.09;4933627;29;20547;-64
2022/11/17 04:54:00;;;;;;;0.10;0.10;;;;;;;13.86;62.74;93756.31;4934376;29;20457;-62
2022/11/17 04:56:28;;;;;;;2.33;1.80;;;;;;;13.89;63.66;93724.09;4943781;29;20534;-64
2022/11/17 04:58:55;;;;;;;0.23;0.23;;;;;;;14.02;62.82;93744.31;4954971;28;20497;-64
2022/11/17 05:01:24;;;;;;;15.83;4.23;;;;;;;14.09;62.56;93744.66;4944096;28;20491;-65
2022/11/17 05:03:54;;;;;;;1.10;1.07;;;;;;;14.20;62.17;93730.13;4949132;29;20510;-64
2022/11/17 05:06:24;;;;;;;0.17;0.17;;;;;;;14.71;60.71;93734.75;4935730;29;20447;-62
2022/11/17 05:08:54;;;;;;;0.20;0.20;;;;;;;14.78;60.81;93743.75;4935295;29;20492;-64
2022/11/17 05:14:16;;;;;;;1.33;1.23;;;;;;;14.75;60.62;93727.78;4939317;28;20472;-64
2022/11/17 05:19:39;;;;;;;0.93;0.67;;;;;;;14.00;63.88;93728.03;4934665;29;20476;-65
2022/11/17 05:23:52;;;;;;;1.23;1.00;;;;;;;14.22;62.38;93717.41;4942278;28;20526;-64
2022/11/17 05:24:55;;;;;;;1.10;1.10;;;;;;;14.15;63.43;93712.59;4951351;28;20507;-65
2022/11/17 05:27:23;;;;;;;1.60;1.50;;;;;;;12.92;67.22;93735.41;4945274;28;20510;-64
2022/11/17 05:29:50;;;;;;;1.10;1.10;;;;;;;13.75;64.74;93729.50;4950353;28;20491;-67
2022/11/17 05:32:16;;;;;;;0.53;0.53;;;;;;;14.44;62.12;93713.94;4952817;28;20453;-63
2022/11/17 05:34:43;;;;;;;0.40;0.40;;;;;;;14.07;62.82;93707.28;4945850;28;20547;-67
2022/11/17 05:37:10;;;;;;;0.90;0.77;;;;;;;14.41;62.31;93710.06;4938791;28;20503;-64
2022/11/17 05:39:37;;;;;;;2.43;1.17;;;;;;;14.32;62.14;93706.63;4948088;28;20442;-66
2022/11/17 05:42:04;;;;;;;0.47;0.47;;;;;;;14.16;62.53;93702.81;4951454;28;20450;-68
2022/11/17 05:44:31;;;;;;;1.53;1.43;;;;;;;14.36;62.23;93702.28;4939656;28;20447;-71
2022/11/17 05:46:58;;;;;;;8.97;5.57;;;;;;;14.31;63.04;93726.16;4943264;28;21011;-72
2022/11/17 05:49:25;;;;;;;2.90;2.57;;;;;;;14.32;62.48;93732.22;4946300;29;20530;-64
2022/11/17 05:51:52;;;;;;;1.63;1.53;;;;;;;14.78;60.30;93719.28;4934266;29;20571;-64
2022/11/17 05:54:19;;;;;;;1.10;1.10;;;;;;;14.01;61.93;93746.16;4946683;28;20448;-65
2022/11/17 05:57:02;;;;;;;2.63;2.43;;;;;;;13.15;64.81;93742.28;4943223;28;20971;-67
2022/11/17 05:59:34;;;;;;;6.43;1.93;;;;;;;13.43;66.31;93739.53;4939118;28;20447;-71
2022/11/17 06:02:07;;;;;;;0.57;0.57;;;;;;;14.03;62.92;93730.06;4941706;28;20476;-72
2022/11/17 06:04:34;;;;;;;0.60;0.60;;;;;;;14.37;61.88;93730.22;4937870;29;20457;-64
2022/11/17 06:07:01;;;;;;;0.70;0.70;;;;;;;14.51;61.54;93733.50;4952347;28;20795;-63
2022/11/17 06:09:32;;;;;;;1.13;1.03;;;;;;;14.77;60.76;93721.13;4948911;29;20488;-65
2022/11/17 06:11:59;;;;;;;1.40;0.50;;;;;;;14.93;59.71;93743.31;4942642;29;20451;-65
2022/11/17 06:14:33;;;;;;;1.73;1.63;;;;;;;14.40;62.57;93734.84;4952150;28;21030;-65
2022/11/17 06:17:05;;;;;;;0.83;0.83;;;;;;;14.52;62.27;93732.41;4952652;28;20498;-65
2022/11/17 06:19:43;;;;;;;0.20;0.20;;;;;;;14.67;61.39;93750.41;4939061;28;20539;-65
2022/11/17 06:22:10;;;;;;;1.70;1.50;;;;;;;14.49;62.67;93742.81;4948141;28;20457;-64
2022/11/17 06:24:42;;;;;;;1.53;1.33;;;;;;;14.46;62.57;93760.00;4943281;28;20444;-64
2022/11/17 06:27:12;;;;;;;0.97;0.97;;;;;;;14.25;62.78;93770.28;4944064;29;21334;-64
2022/11/17 06:29:40;;;;;;;2.60;1.60;;;;;;;14.41;63.19;93775.94;4938519;28;20933;-63
2022/11/17 06:32:13;;;;;;;0.77;0.77;;;;;;;14.69;62.75;93784.41;4952335;28;20489;-64
2022/11/17 06:34:41;;;;;;;0.57;0.57;;;;;;;14.59;62.13;93809.19;4946164;28;20440;-63
2022/11/17 06:37:10;;;;;;;0.53;0.53;;;;;;;14.55;62.96;93810.09;4941128;29;20444;-65
2022/11/17 06:39:37;;;;;;;0.43;0.43;;;;;;;14.86;61.95;93811.56;4936418;28;20524;-63
2022/11/17 06:42:03;;;;;;;1.10;1.00;;;;;;;14.76;61.84;93838.22;4950593;28;20869;-65
2022/11/17 06:44:30;;;;;;;0.67;0.67;;;;;;;14.71;62.78;93851.56;4952458;28;20494;-62
2022/11/17 06:46:57;;;;;;;1.65;1.55;;;;;;;14.71;62.40;93856.03;4907517;28;1133402;-63
2022/11/17 06:49:24;;;;;;;0.93;0.87;;;;;;;14.81;61.86;93853.91;4946460;29;20232;-63
2022/11/17 06:51:51;;;;;;;0.27;0.10;;;;;;;15.06;60.93;93863.75;4938727;28;20547;-62
2022/11/17 06:54:18;;;;;;;0.67;0.67;;;;;;;14.84;61.59;93876.25;4950870;29;20535;-64
2022/11/17 06:56:45;;;;;;;1.33;1.23;;;;;;;14.78;61.66;93862.44;4942712;29;20448;-62
2022/11/17 06:59:13;;;;;;;1.63;1.53;;;;;;;14.64;62.82;93876.78;4949020;28;20448;-62
2022/11/17 07:01:39;;;;;;;1.50;0.53;;;;;;;14.42;64.49;93930.34;4944114;28;20575;-62
2022/11/17 07:04:07;;;;;;;0.60;0.60;;;;;;;14.10;64.99;93917.44;4946851;29;21047;-61
2022/11/17 07:06:37;;;;;;;0.17;0.17;;;;;;;14.36;65.22;93949.25;4940492;29;20499;-62
2022/11/17 07:09:04;;;;;;;0.40;0.40;;;;;;;13.98;66.24;93936.41;4938820;28;20558;-62
2022/11/17 07:11:33;;;;;;;1.67;1.07;;;;;;;13.90;66.37;93920.53;4938801;29;20997;-61
2022/11/17 07:14:00;;;;;;;1.13;1.03;;;;;;;13.93;66.26;93925.19;4940331;28;20484;-62
2022/11/17 07:16:28;;;;;;;0.67;0.67;;;;;;;13.77;67.12;93905.56;4950513;28;20454;-61
2022/11/17 07:18:57;;;;;;;0.60;0.47;;;;;;;14.18;65.48;93890.34;4952224;28;20474;-61
2022/11/17 07:21:25;;;;;;;2.10;1.90;;;;;;;14.87;63.27;93871.13;4951948;28;20479;-62
2022/11/17 07:23:51;;;;;;;0.20;0.20;;;;;;;14.68;63.53;93854.81;4952050;28;20479;-62
2022/11/17 07:26:18;;;;;;;1.50;1.30;;;;;;;14.83;63.11;93849.13;4950496;28;20447;-63
2022/11/17 07:28:45;;;;;;;0.20;0.20;;;;;;;14.77;62.75;93823.19;4940586;29;20557;-62
2022/11/17 07:31:12;;;;;;;0.30;0.30;;;;;;;14.74;62.30;93808.78;4938664;28;20555;-62
2022/11/17 07:33:39;;;;;;;0.10;0.10;;;;;;;15.18;61.26;93792.66;4945958;28;20516;-61
2022/11/17 07:36:11;;;;;;;0.37;0.37;;;;;;;15.56;60.55;93776.25;4944992;29;20858;-62
2022/11/17 07:38:38;;;;;;;0.60;0.60;;;;;;;15.61;60.46;93765.50;4952017;28;20455;-63
2022/11/17 07:41:08;;;;;;;0.23;0.23;;;;;;;15.57;61.06;93812.88;4952269;28;20447;-61
2022/11/17 07:43:35;;;;;;;0.40;0.40;;;;;;;15.05;62.56;93812.06;4951141;28;20534;-65
2022/11/17 07:46:07;;;;;;;0.93;0.93;;;;;;;15.63;60.53;93792.38;4934306;29;20579;-62
2022/11/17 07:48:34;;;;;;;0.10;0.10;;;;;;;15.31;61.06;93785.69;4932350;29;20455;-61
2022/11/17 07:51:03;;;;;;;0.47;0.47;;;;;;;15.62;61.04;93785.56;4932052;29;20913;-61
2022/11/17 07:53:32;;;;;;;0.47;0.47;;;;;;;15.53;61.70;93771.59;4943767;29;20451;-60
2022/11/17 07:56:06;;;;;;;0.63;0.63;;;;;;;15.59;61.40;93757.13;4938612;28;20447;-60
2022/11/17 07:58:33;;;;;;;0.10;0.10;;;;;;;15.65;61.22;93769.09;4952533;28;21029;-60
2022/11/17 08:01:09;;;;;;;0.23;0.23;;;;;;;15.76;60.07;93772.94;4951456;28;20451;-60
2022/11/17 08:03:37;;;;;;;42.27;1.43;;;;;;;15.65;60.31;93798.13;4951701;28;20528;-61
2022/11/17 08:06:05;;;;;;;0.47;0.47;;;;;;;15.91;59.62;93798.88;4951553;28;20442;-62
2022/11/17 08:08:32;;;;;;;1.70;0.93;;;;;;;15.75;59.70;93795.16;4942551;28;20471;-62
2022/11/17 08:11:10;;;;;;;0.00;0.00;;;;;;;16.07;59.13;93802.56;4945597;29;20494;-61
2022/11/17 08:13:39;;;;;;;4.50;4.03;;;;;;;16.32;59.09;93790.34;4941465;29;20829;-61
2022/11/17 08:16:07;;;;;;;0.73;0.73;;;;;;;15.84;59.81;93809.91;4949711;29;20837;-61
2022/11/17 08:18:36;;;;;;;0.40;0.40;;;;;;;16.22;58.52;93817.91;4939792;28;20951;-62
2022/11/17 08:21:06;;;;;;;0.80;0.63;;;;;;;16.38;57.38;93829.50;4937212;28;20818;-62
2022/11/17 08:23:34;;;;;;;0.10;0.10;;;;;;;15.94;57.16;93829.94;4939233;29;20856;-61
2022/11/17 08:26:02;;;;;;;0.00;0.00;;;;;;;15.54;55.10;93841.78;4951307;28;20884;-61
2022/11/17 08:28:29;;;;;;;0.20;0.20;;;;;;;16.29;56.23;93839.34;4932286;28;20566;-62
2022/11/17 08:30:58;;;;;;;0.00;0.00;;;;;;;16.22;55.22;93841.69;4932286;28;20895;-61
2022/11/17 08:33:25;;;;;;;0.10;0.10;;;;;;;15.86;55.44;93842.06;4945672;29;20957;-61
2022/11/17 08:35:56;;;;;;;0.00;0.00;;;;;;;16.35;54.55;93846.00;4942387;29;20904;-61
2022/11/17 08:38:27;;;;;;;0.10;0.10;;;;;;;16.41;55.80;93852.66;4951072;28;20443;-62
2022/11/17 08:41:00;;;;;;;0.30;0.30;;;;;;;16.28;55.93;93855.53;4951415;28;20462;-62
2022/11/17 08:43:28;;;;;;;0.30;0.30;;;;;;;16.55;56.22;93855.91;4948109;28;20472;-61
2022/11/17 08:45:54;;;;;;;0.00;0.00;;;;;;;16.26;57.51;93853.16;4940517;29;20590;-61
2022/11/17 08:48:22;;;;;;;1.17;0.57;;;;;;;15.81;59.13;93852.78;4949275;28;20444;-62
2022/11/17 08:50:49;;;;;;;0.50;0.50;;;;;;;16.12;58.83;93857.88;4932789;29;20480;-61
2022/11/17 08:53:19;;;;;;;1.27;0.97;;;;;;;15.99;59.72;93864.09;4941289;29;20878;-62
2022/11/17 08:55:46;;;;;;;2.03;1.53;;;;;;;16.02;59.42;93852.94;4937004;28;20453;-62
2022/11/17 08:58:13;;;;;;;0.60;0.60;;;;;;;16.24;59.68;93863.28;4950885;28;20451;-62
2022/11/17 09:00:40;;;;;;;0.80;0.80;;;;;;;16.23;60.25;93864.38;4949555;28;20691;-61
2022/11/17 09:03:09;;;;;;;4.50;3.23;;;;;;;15.95;60.80;93852.59;4938442;29;21018;-62
2022/11/17 09:05:39;;;;;;;0.43;0.40;;;;;;;16.39;60.00;93836.34;4938490;28;20495;-61
2022/11/17 09:08:06;;;;;;;1.83;1.70;;;;;;;16.62;59.14;93853.56;4937602;29;20451;-61
2022/11/17 09:10:53;;;;;;;3.83;0.93;;;;;;;16.83;58.71;93858.91;4950808;28;20857;-62
2022/11/17 09:13:20;;;;;;;0.77;0.77;;;;;;;16.93;58.35;93855.91;4950830;28;20559;-62
2022/11/17 09:15:47;;;;;;;1.57;1.47;;;;;;;16.63;58.82;93854.31;4951037;28;20943;-62
2022/11/17 09:18:14;;;;;;;1.67;0.97;;;;;;;16.59;59.32;93842.81;4937051;28;20446;-61
2022/11/17 09:20:42;;;;;;;0.30;0.30;;;;;;;16.85;59.13;93840.84;4939454;28;20809;-61
2022/11/17 09:23:11;;;;;;;0.40;0.40;;;;;;;16.98;58.53;93848.56;4948936;28;20498;-61
2022/11/17 09:25:38;;;;;;;0.73;0.73;;;;;;;16.65;59.68;93849.50;4940628;28;20440;-61
2022/11/17 09:28:05;;;;;;;2.07;1.43;;;;;;;16.97;59.41;93847.00;4929961;29;20910;-60
2022/11/17 09:30:32;;;;;;;0.73;0.60;;;;;;;17.27;58.42;93849.63;4931239;29;20575;-62
2022/11/17 09:32:59;;;;;;;0.40;0.40;;;;;;;17.27;58.25;93849.63;4931026;29;20860;-62
2022/11/17 09:35:26;;;;;;;0.37;0.37;;;;;;;17.14;59.39;93846.91;4938183;28;20482;-61
2022/11/17 09:37:57;;;;;;;0.63;0.63;;;;;;;16.83;59.43;93841.16;4950513;28;20470;-61
2022/11/17 09:40:24;;;;;;;0.40;0.40;;;;;;;16.75;59.93;93849.91;4947502;28;20480;-61
2022/11/17 09:45:38;;;;;;;0.57;0.57;;;;;;;17.32;59.00;93839.63;4940998;29;20478;-61
2022/11/17 09:48:05;;;;;;;0.10;0.10;;;;;;;17.28;58.89;93846.66;4953683;28;20560;-61
2022/11/17 09:50:56;;;;;;;1.87;1.73;;;;;;;17.41;59.17;93844.88;4934530;29;20582;-61
2022/11/17 09:53:49;;;;;;;0.77;0.77;;;;;;;17.04;59.49;93841.22;4934512;29;21051;-65
2022/11/17 09:56:16;;;;;;;1.60;1.40;;;;;;;17.12;58.25;93838.50;4940774;29;20444;-64
2022/11/17 09:58:49;;;;;;;2.13;1.90;;;;;;;17.19;57.78;93832.69;4940231;28;20896;-63
2022/11/17 10:01:18;;;;;;;0.60;0.60;;;;;;;17.43;58.08;93832.06;4953424;29;20440;-63
2022/11/17 10:03:48;;;;;;;0.60;0.60;;;;;;;17.61;57.89;93830.88;4942150;29;20448;-62
2022/11/17 10:06:19;;;;;;;8.80;1.63;;;;;;;17.62;58.45;93829.78;4934466;29;20654;-62
2022/11/17 10:09:11;;;;;;;5.93;4.10;;;;;;;17.80;57.79;93826.66;4945458;29;20439;-63
2022/11/17 10:11:40;;;;;;;2.53;1.90;;;;;;;17.70;57.07;93831.59;4940887;29;20443;-62
2022/11/17 10:14:07;;;;;;;0.37;0.37;;;;;;;17.74;57.47;93827.16;4940471;28;20468;-61
2022/11/17 10:16:36;;;;;;;0.70;0.70;;;;;;;17.54;57.94;93834.03;4952705;29;20455;-62
2022/11/17 10:19:24;;;;;;;5.70;1.37;;;;;;;17.09;58.76;93823.28;4941891;29;20440;-62
2022/11/17 10:22:13;;;;;;;0.57;0.57;;;;;;;17.48;58.15;93829.28;4941236;28;20893;-61
2022/11/17 10:24:43;;;;;;;1.93;1.67;;;;;;;17.58;57.44;93828.88;4945102;28;20459;-61
2022/11/17 10:27:16;;;;;;;0.80;0.80;;;;;;;17.58;57.73;93823.56;4953139;28;20915;-61
2022/11/17 10:30:15;;;;;;;0.33;0.33;;;;;;;17.61;57.39;93822.94;4939583;28;20551;-62
2022/11/17 10:32:53;;;;;;;2.37;1.17;;;;;;;17.72;57.35;93818.75;4941137;28;20452;-62
2022/11/17 10:35:24;;;;;;;0.50;0.50;;;;;;;17.49;57.68;93820.22;4947363;28;20519;-62
2022/11/17 10:38:15;;;;;;;1.27;1.13;;;;;;;17.61;57.11;93801.75;4933757;29;20452;-62
2022/11/17 10:40:42;;;;;;;0.10;0.10;;;;;;;17.63;57.00;93810.91;4941828;29;20869;-63
2022/11/17 10:43:11;;;;;;;0.60;0.60;;;;;;;17.88;56.59;93817.09;4952396;28;20440;-62
2022/11/17 10:46:06;;;;;;;0.40;0.40;;;;;;;17.55;56.91;93821.56;4940327;28;20495;-61
2022/11/17 10:48:36;;;;;;;0.70;0.70;;;;;;;17.81;56.70;93806.25;4953892;28;20492;-61
2022/11/17 10:51:10;;;;;;;0.63;0.63;;;;;;;17.82;57.13;93807.78;4943649;28;20499;-61
2022/11/17 10:53:37;;;;;;;1.23;1.13;;;;;;;17.97;56.41;93809.81;4945850;29;20473;-61
2022/11/17 10:56:18;;;;;;;0.53;0.53;;;;;;;17.84;55.11;93816.19;4947027;28;20455;-61
2022/11/17 10:59:30;;;;;;;0.67;0.67;;;;;;;17.89;55.53;93826.56;4946058;28;20827;-62
2022/11/17 11:02:34;;;;;;;0.47;0.47;;;;;;;17.88;56.23;93827.69;4944655;28;20448;-62
2022/11/17 11:05:12;;;;;;;0.13;0.13;;;;;;;17.98;55.42;93821.97;4933208;29;20460;-63
2022/11/17 11:07:39;;;;;;;0.43;0.43;;;;;;;17.84;56.19;93816.97;4946134;29;21307;-62
2022/11/17 11:10:17;;;;;;;0.77;0.77;;;;;;;17.62;56.76;93827.13;4933150;29;20854;-62
2022/11/17 11:13:13;;;;;;;0.53;0.53;;;;;;;17.88;56.03;93832.97;4935076;29;20444;-62
2022/11/17 11:15:40;;;;;;;0.50;0.50;;;;;;;17.96;54.95;93829.47;4940854;28;20539;-63
2022/11/17 11:18:15;;;;;;;0.37;0.37;;;;;;;17.92;55.63;93817.97;4950518;29;20443;-62
2022/11/17 11:21:07;;;;;;;0.37;0.37;;;;;;;17.89;55.64;93830.00;4940956;28;20547;-63
2022/11/17 11:23:43;;;;;;;0.40;0.40;;;;;;;17.48;56.99;93818.69;4933304;29;20440;-62
2022/11/17 11:26:31;;;;;;;1.00;0.90;;;;;;;18.13;55.79;93824.00;4934168;29;20538;-62
2022/11/17 11:29:11;;;;;;;2.10;0.93;;;;;;;17.85;55.04;93818.50;4952329;29;20478;-62
2022/11/17 11:31:57;;;;;;;0.20;0.20;;;;;;;18.08;54.86;93824.22;4952271;28;20626;-61
2022/11/17 11:34:45;;;;;;;1.43;1.33;;;;;;;18.08;55.11;93826.88;4952452;29;20522;-63
2022/11/17 11:37:13;;;;;;;0.10;0.10;;;;;;;17.55;52.50;93825.00;4944766;28;20456;-63
2022/11/17 11:40:01;;;;;;;13.13;1.23;;;;;;;17.31;54.91;93824.06;4932824;29;20440;-63
2022/11/17 11:43:03;;;;;;;0.40;0.40;;;;;;;17.84;54.06;93827.56;4941163;28;20542;-62
2022/11/17 11:45:36;;;;;;;0.43;0.43;;;;;;;18.31;53.31;93825.38;4938065;29;20978;-65
2022/11/17 11:48:14;;;;;;;1.37;1.27;;;;;;;18.38;53.83;93822.94;4939298;28;20455;-63
2022/11/17 11:51:01;;;;;;;0.80;0.40;;;;;;;18.61;53.67;93821.44;4932431;28;20925;-62
2022/11/17 11:53:31;;;;;;;0.87;0.87;;;;;;;18.52;53.61;93820.78;4943551;28;20568;-63
2022/11/17 11:56:23;;;;;;;0.20;0.20;;;;;;;18.25;54.38;93815.31;4938125;28;20460;-62
2022/11/17 11:58:57;;;;;;;0.87;0.87;;;;;;;18.43;54.58;93822.75;4951362;28;20538;-62
2022/11/17 12:01:26;;;;;;;0.10;0.10;;;;;;;18.44;54.01;93816.34;4951322;28;20455;-62
2022/11/17 12:04:10;;;;;;;0.73;0.73;;;;;;;18.36;54.60;93817.19;4937838;28;20480;-61
2022/11/17 12:06:52;;;;;;;0.30;0.30;;;;;;;18.19;55.15;93822.69;4942533;28;20550;-61
2022/11/17 12:09:40;;;;;;;1.13;1.07;;;;;;;17.88;55.34;93827.69;4948627;29;20977;-63
2022/11/17 12:12:13;;;;;;;0.83;0.60;;;;;;;17.70;55.52;93836.88;4951167;28;20444;-61
2022/11/17 12:15:08;;;;;;;0.00;0.00;;;;;;;17.67;54.50;93832.22;4945680;28;20487;-61
2022/11/17 12:17:36;;;;;;;2.20;0.83;;;;;;;17.86;55.24;93817.38;4946491;28;20907;-61
2022/11/17 12:20:29;;;;;;;0.23;0.23;;;;;;;18.10;52.78;93832.63;4951327;28;20978;-61
2022/11/17 12:23:25;;;;;;;0.20;0.20;;;;;;;18.29;50.78;93824.13;4937218;28;20455;-64
2022/11/17 12:25:56;;;;;;;0.10;0.10;;;;;;;18.56;50.41;93826.97;4951129;29;20822;-61
2022/11/17 12:28:26;;;;;;;0.30;0.30;;;;;;;18.15;51.15;93832.41;4931634;29;20452;-63